sensor_id;sensor_type;location;lat;lon;timestamp;pressure;altitude;pressure_sealevel;temperature;humidity
7532;BME280;3807;49.030;8.714;2024-01-30T00:00:21;100689.16;;;4.93;77.02
7532;BME280;3807;49.030;8.714;2024-01-30T00:02:46;100695.06;;;4.97;76.64
7532;BME280;3807;49.030;8.714;2024-01-30T00:05:12;100687.47;;;4.94;76.71
7532;BME280;3807;49.030;8.714;2024-01-30T00:07:40;100691.69;;;4.95;76.98
7532;BME280;3807;49.030;8.714;2024-01-30T00:10:05;100699.19;;;4.89;76.55
7532;BME280;3807;49.030;8.714;2024-01-30T00:12:31;100694.97;;;4.88;76.58
7532;BME280;3807;49.030;8.714;2024-01-30T00:14:57;100705.94;;;4.88;76.46
7532;BME280;3807;49.030;8.714;2024-01-30T00:17:23;100698.41;;;4.93;76.59
7532;BME280;3807;49.030;8.714;2024-01-30T00:19:50;100694.97;;;4.88;76.51
7532;BME280;3807;49.030;8.714;2024-01-30T00:22:15;100707.63;;;4.89;76.64
7532;BME280;3807;49.030;8.714;2024-01-30T00:24:41;100706.78;;;4.89;76.40
7532;BME280;3807;49.030;8.714;2024-01-30T00:27:07;100705.94;;;4.91;76.80
7532;BME280;3807;49.030;8.714;2024-01-30T00:29:32;100709.31;;;4.90;76.27
7532;BME280;3807;49.030;8.714;2024-01-30T00:31:59;100706.69;;;4.84;76.59
7532;BME280;3807;49.030;8.714;2024-01-30T00:34:25;100700.81;;;4.82;76.36
7532;BME280;3807;49.030;8.714;2024-01-30T00:36:50;100707.50;;;4.80;76.81
7532;BME280;3807;49.030;8.714;2024-01-30T00:39:15;100707.50;;;4.78;76.92
7532;BME280;3807;49.030;8.714;2024-01-30T00:41:41;100708.34;;;4.81;76.70
7532;BME280;3807;49.030;8.714;2024-01-30T00:44:06;100701.56;;;4.76;76.41
7532;BME280;3807;49.030;8.714;2024-01-30T00:46:32;100705.84;;;4.84;76.55
7532;BME280;3807;49.030;8.714;2024-01-30T00:48:57;100704.13;;;4.80;76.82
7532;BME280;3807;49.030;8.714;2024-01-30T00:51:23;100700.00;;;4.85;76.46
7532;BME280;3807;49.030;8.714;2024-01-30T00:53:48;100701.59;;;4.81;76.13
7532;BME280;3807;49.030;8.714;2024-01-30T00:56:13;100699.84;;;4.72;76.26
7532;BME280;3807;49.030;8.714;2024-01-30T00:58:39;100706.59;;;4.75;76.15
7532;BME280;3807;49.030;8.714;2024-01-30T01:01:05;100707.44;;;4.75;76.19
7532;BME280;3807;49.030;8.714;2024-01-30T01:03:32;100707.44;;;4.77;76.60
7532;BME280;3807;49.030;8.714;2024-01-30T01:05:57;100710.81;;;4.76;76.45
7532;BME280;3807;49.030;8.714;2024-01-30T01:08:23;100719.19;;;4.72;76.61
7532;BME280;3807;49.030;8.714;2024-01-30T01:10:48;100706.56;;;4.72;76.70
7532;BME280;3807;49.030;8.714;2024-01-30T01:13:14;100714.09;;;4.69;76.47
7532;BME280;3807;49.030;8.714;2024-01-30T01:15:39;100713.34;;;4.74;76.63
7532;BME280;3807;49.030;8.714;2024-01-30T01:18:04;100714.88;;;4.66;76.21
7532;BME280;3807;49.030;8.714;2024-01-30T01:20:30;100711.56;;;4.67;76.64
7532;BME280;3807;49.030;8.714;2024-01-30T01:22:55;100709.03;;;4.67;76.37
7532;BME280;3807;49.030;8.714;2024-01-30T01:25:20;100720.78;;;4.65;76.71
7532;BME280;3807;49.030;8.714;2024-01-30T01:27:46;100717.38;;;4.63;76.33
7532;BME280;3807;49.030;8.714;2024-01-30T01:30:16;100713.25;;;4.70;76.42
7532;BME280;3807;49.030;8.714;2024-01-30T01:32:50;100716.56;;;4.64;76.02
7532;BME280;3807;49.030;8.714;2024-01-30T01:35:21;100715.72;;;4.64;75.92
7532;BME280;3807;49.030;8.714;2024-01-30T01:37:47;100711.47;;;4.63;76.36
7532;BME280;3807;49.030;8.714;2024-01-30T01:40:20;100712.28;;;4.60;76.42
7532;BME280;3807;49.030;8.714;2024-01-30T01:42:45;100706.41;;;4.61;76.02
7532;BME280;3807;49.030;8.714;2024-01-30T01:45:10;100706.31;;;4.53;75.91
7532;BME280;3807;49.030;8.714;2024-01-30T01:47:36;100705.50;;;4.56;76.21
7532;BME280;3807;49.030;8.714;2024-01-30T01:50:02;100704.66;;;4.56;76.17
7532;BME280;3807;49.030;8.714;2024-01-30T01:52:28;100705.44;;;4.51;76.27
7532;BME280;3807;49.030;8.714;2024-01-30T01:54:53;100694.50;;;4.51;76.38
7532;BME280;3807;49.030;8.714;2024-01-30T01:57:19;100700.41;;;4.50;76.43
7532;BME280;3807;49.030;8.714;2024-01-30T01:59:45;100692.78;;;4.48;76.76
7532;BME280;3807;49.030;8.714;2024-01-30T02:02:11;100696.28;;;4.58;75.83
7532;BME280;3807;49.030;8.714;2024-01-30T02:04:38;100691.09;;;4.49;76.73
7532;BME280;3807;49.030;8.714;2024-01-30T02:07:03;100679.34;;;4.48;76.53
7532;BME280;3807;49.030;8.714;2024-01-30T02:09:28;100691.91;;;4.45;76.75
7532;BME280;3807;49.030;8.714;2024-01-30T02:11:54;100699.56;;;4.51;76.09
7532;BME280;3807;49.030;8.714;2024-01-30T02:14:20;100696.94;;;4.45;76.70
7532;BME280;3807;49.030;8.714;2024-01-30T02:16:45;100696.44;;;4.69;75.48
7532;BME280;3807;49.030;8.714;2024-01-30T02:19:11;100697.00;;;4.49;76.12
7532;BME280;3807;49.030;8.714;2024-01-30T02:21:36;100695.31;;;4.47;76.31
7532;BME280;3807;49.030;8.714;2024-01-30T02:24:02;100693.63;;;4.49;76.49
7532;BME280;3807;49.030;8.714;2024-01-30T02:26:28;100694.41;;;4.45;76.57
7532;BME280;3807;49.030;8.714;2024-01-30T02:28:54;100696.25;;;4.55;75.57
7532;BME280;3807;49.030;8.714;2024-01-30T02:31:19;100691.81;;;4.37;76.42
7532;BME280;3807;49.030;8.714;2024-01-30T02:33:44;100697.78;;;4.44;76.07
7532;BME280;3807;49.030;8.714;2024-01-30T02:36:10;100695.22;;;4.42;76.34
7532;BME280;3807;49.030;8.714;2024-01-30T02:38:35;100697.94;;;4.56;75.81
7532;BME280;3807;49.030;8.714;2024-01-30T02:41:00;100692.69;;;4.42;76.41
7532;BME280;3807;49.030;8.714;2024-01-30T02:43:26;100703.66;;;4.44;75.81
7532;BME280;3807;49.030;8.714;2024-01-30T02:45:51;100696.09;;;4.46;76.04
7532;BME280;3807;49.030;8.714;2024-01-30T02:48:16;100695.16;;;4.38;75.99
7532;BME280;3807;49.030;8.714;2024-01-30T02:50:42;100695.19;;;4.39;76.01
7532;BME280;3807;49.030;8.714;2024-01-30T02:53:07;100704.56;;;4.46;75.28
7532;BME280;3807;49.030;8.714;2024-01-30T02:55:33;100701.09;;;4.40;75.70
7532;BME280;3807;49.030;8.714;2024-01-30T02:57:58;100699.47;;;4.45;76.28
7532;BME280;3807;49.030;8.714;2024-01-30T03:00:24;100702.78;;;4.42;75.95
7532;BME280;3807;49.030;8.714;2024-01-30T03:02:49;100696.84;;;4.37;76.05
7532;BME280;3807;49.030;8.714;2024-01-30T03:05:15;100701.97;;;4.43;75.92
7532;BME280;3807;49.030;8.714;2024-01-30T03:07:40;100691.00;;;4.40;75.65
7532;BME280;3807;49.030;8.714;2024-01-30T03:10:06;100705.19;;;4.33;76.47
7532;BME280;3807;49.030;8.714;2024-01-30T03:12:32;100705.09;;;4.25;75.59
7532;BME280;3807;49.030;8.714;2024-01-30T03:14:57;100695.97;;;4.35;75.61
7532;BME280;3807;49.030;8.714;2024-01-30T03:17:22;100694.50;;;4.51;75.07
7532;BME280;3807;49.030;8.714;2024-01-30T03:19:49;100697.13;;;4.60;74.03
7532;BME280;3807;49.030;8.714;2024-01-30T03:22:14;100694.59;;;4.57;74.64
7532;BME280;3807;49.030;8.714;2024-01-30T03:24:40;100696.69;;;4.28;75.11
7532;BME280;3807;49.030;8.714;2024-01-30T03:27:05;100703.75;;;4.50;74.40
7532;BME280;3807;49.030;8.714;2024-01-30T03:29:30;100697.88;;;4.50;74.55
7532;BME280;3807;49.030;8.714;2024-01-30T03:31:56;100696.09;;;4.43;75.15
7532;BME280;3807;49.030;8.714;2024-01-30T03:34:21;100694.38;;;4.40;74.99
7532;BME280;3807;49.030;8.714;2024-01-30T03:36:46;100690.31;;;4.53;73.99
7532;BME280;3807;49.030;8.714;2024-01-30T03:39:12;100694.28;;;4.33;74.66
7532;BME280;3807;49.030;8.714;2024-01-30T03:41:37;100697.69;;;4.38;74.96
7532;BME280;3807;49.030;8.714;2024-01-30T03:44:03;100694.63;;;4.60;73.97
7532;BME280;3807;49.030;8.714;2024-01-30T03:46:28;100700.06;;;4.28;74.93
7532;BME280;3807;49.030;8.714;2024-01-30T03:48:53;100690.16;;;4.41;74.49
7532;BME280;3807;49.030;8.714;2024-01-30T03:51:19;100694.53;;;4.52;73.69
7532;BME280;3807;49.030;8.714;2024-01-30T03:53:45;100690.03;;;4.32;75.00
7532;BME280;3807;49.030;8.714;2024-01-30T03:56:13;100689.47;;;4.51;73.98
7532;BME280;3807;49.030;8.714;2024-01-30T03:58:39;100684.34;;;4.45;74.16
7532;BME280;3807;49.030;8.714;2024-01-30T04:01:04;100695.72;;;4.18;75.51
7532;BME280;3807;49.030;8.714;2024-01-30T04:03:30;100693.56;;;4.44;73.93
7532;BME280;3807;49.030;8.714;2024-01-30T04:05:55;100695.50;;;4.61;73.47
7532;BME280;3807;49.030;8.714;2024-01-30T04:08:20;100699.59;;;4.54;73.26
7532;BME280;3807;49.030;8.714;2024-01-30T04:10:46;100706.59;;;4.14;75.17
7532;BME280;3807;49.030;8.714;2024-01-30T04:13:12;100701.78;;;4.31;74.72
7532;BME280;3807;49.030;8.714;2024-01-30T04:15:37;100711.03;;;4.29;74.82
7532;BME280;3807;49.030;8.714;2024-01-30T04:18:03;100696.94;;;4.45;74.25
7532;BME280;3807;49.030;8.714;2024-01-30T04:20:29;100703.72;;;4.47;73.89
7532;BME280;3807;49.030;8.714;2024-01-30T04:22:54;100708.50;;;4.29;74.26
7532;BME280;3807;49.030;8.714;2024-01-30T04:25:19;100705.94;;;4.27;74.52
7532;BME280;3807;49.030;8.714;2024-01-30T04:27:45;100701.84;;;4.34;74.16
7532;BME280;3807;49.030;8.714;2024-01-30T04:30:10;100699.06;;;4.17;74.60
7532;BME280;3807;49.030;8.714;2024-01-30T04:32:36;100700.53;;;4.03;75.54
7532;BME280;3807;49.030;8.714;2024-01-30T04:35:02;100703.38;;;4.23;74.43
7532;BME280;3807;49.030;8.714;2024-01-30T04:37:28;100697.44;;;4.19;74.90
7532;BME280;3807;49.030;8.714;2024-01-30T04:39:53;100692.53;;;4.30;73.87
7532;BME280;3807;49.030;8.714;2024-01-30T04:42:19;100697.38;;;4.16;74.82
7532;BME280;3807;49.030;8.714;2024-01-30T04:44:44;100693.34;;;4.27;73.86
7532;BME280;3807;49.030;8.714;2024-01-30T04:47:10;100699.84;;;4.12;74.45
7532;BME280;3807;49.030;8.714;2024-01-30T04:49:38;100703.16;;;4.09;74.53
7532;BME280;3807;49.030;8.714;2024-01-30T04:52:05;100702.56;;;4.25;74.25
7532;BME280;3807;49.030;8.714;2024-01-30T04:54:31;100705.09;;;4.27;73.95
7532;BME280;3807;49.030;8.714;2024-01-30T04:56:56;100701.34;;;4.00;75.27
7532;BME280;3807;49.030;8.714;2024-01-30T04:59:21;100707.47;;;4.16;74.60
7532;BME280;3807;49.030;8.714;2024-01-30T05:01:47;100702.47;;;4.19;74.07
7532;BME280;3807;49.030;8.714;2024-01-30T05:04:12;100702.47;;;4.19;74.19
7532;BME280;3807;49.030;8.714;2024-01-30T05:06:37;100705.81;;;4.18;74.12
7532;BME280;3807;49.030;8.714;2024-01-30T05:09:03;100702.50;;;4.21;73.90
7532;BME280;3807;49.030;8.714;2024-01-30T05:11:31;100707.47;;;4.18;73.90
7532;BME280;3807;49.030;8.714;2024-01-30T05:14:01;100704.00;;;4.08;74.62
7532;BME280;3807;49.030;8.714;2024-01-30T05:16:27;100702.34;;;4.10;73.79
7532;BME280;3807;49.030;8.714;2024-01-30T05:18:52;100711.53;;;4.06;74.25
7532;BME280;3807;49.030;8.714;2024-01-30T05:21:17;100707.56;;;4.24;73.39
7532;BME280;3807;49.030;8.714;2024-01-30T05:23:43;100714.34;;;4.26;73.74
7532;BME280;3807;49.030;8.714;2024-01-30T05:26:08;100704.28;;;4.28;73.02
7532;BME280;3807;49.030;8.714;2024-01-30T05:28:34;100712.50;;;4.16;73.83
7532;BME280;3807;49.030;8.714;2024-01-30T05:30:59;100707.47;;;4.18;73.68
7532;BME280;3807;49.030;8.714;2024-01-30T05:33:24;100709.66;;;3.95;74.41
7532;BME280;3807;49.030;8.714;2024-01-30T05:35:50;100715.44;;;3.88;74.43
7532;BME280;3807;49.030;8.714;2024-01-30T05:38:16;100719.81;;;3.99;74.34
7532;BME280;3807;49.030;8.714;2024-01-30T05:40:41;100724.78;;;3.95;74.30
7532;BME280;3807;49.030;8.714;2024-01-30T05:43:06;100723.03;;;3.91;74.62
7532;BME280;3807;49.030;8.714;2024-01-30T05:45:33;100724.41;;;4.25;73.21
7532;BME280;3807;49.030;8.714;2024-01-30T05:47:59;100730.72;;;4.00;74.25
7532;BME280;3807;49.030;8.714;2024-01-30T05:50:24;100727.56;;;4.12;73.53
7532;BME280;3807;49.030;8.714;2024-01-30T05:52:51;100723.06;;;3.92;74.11
7532;BME280;3807;49.030;8.714;2024-01-30T05:55:16;100730.47;;;3.83;74.36
7532;BME280;3807;49.030;8.714;2024-01-30T05:57:42;100735.47;;;3.81;74.61
7532;BME280;3807;49.030;8.714;2024-01-30T06:00:07;100729.94;;;4.04;73.48
7532;BME280;3807;49.030;8.714;2024-01-30T06:02:33;100727.38;;;3.98;73.94
7532;BME280;3807;49.030;8.714;2024-01-30T06:04:59;100723.84;;;3.90;74.34
7532;BME280;3807;49.030;8.714;2024-01-30T06:07:24;100733.03;;;3.85;74.69
7532;BME280;3807;49.030;8.714;2024-01-30T06:09:50;100733.19;;;3.95;74.08
7532;BME280;3807;49.030;8.714;2024-01-30T06:12:15;100738.00;;;3.81;74.79
7532;BME280;3807;49.030;8.714;2024-01-30T06:14:40;100723.91;;;3.93;74.00
7532;BME280;3807;49.030;8.714;2024-01-30T06:17:07;100732.44;;;4.01;73.31
7532;BME280;3807;49.030;8.714;2024-01-30T06:19:33;100726.47;;;3.94;73.64
7532;BME280;3807;49.030;8.714;2024-01-30T06:21:58;100727.84;;;3.77;74.77
7532;BME280;3807;49.030;8.714;2024-01-30T06:24:23;100730.63;;;3.94;73.86
7532;BME280;3807;49.030;8.714;2024-01-30T06:26:49;100733.69;;;3.76;74.30
7532;BME280;3807;49.030;8.714;2024-01-30T06:29:14;100731.94;;;3.72;74.90
7532;BME280;3807;49.030;8.714;2024-01-30T06:31:41;100731.13;;;3.73;74.91
7532;BME280;3807;49.030;8.714;2024-01-30T06:34:10;100727.81;;;3.74;74.41
7532;BME280;3807;49.030;8.714;2024-01-30T06:36:37;100728.72;;;3.79;74.70
7532;BME280;3807;49.030;8.714;2024-01-30T06:39:03;100731.09;;;3.70;75.04
7532;BME280;3807;49.030;8.714;2024-01-30T06:41:29;100725.47;;;3.85;73.73
7532;BME280;3807;49.030;8.714;2024-01-30T06:43:55;100728.75;;;3.80;74.14
7532;BME280;3807;49.030;8.714;2024-01-30T06:46:20;100733.84;;;3.84;73.91
7532;BME280;3807;49.030;8.714;2024-01-30T06:48:45;100725.34;;;3.77;74.28
7532;BME280;3807;49.030;8.714;2024-01-30T06:51:11;100728.41;;;3.62;75.10
7532;BME280;3807;49.030;8.714;2024-01-30T06:53:37;100739.00;;;3.91;73.64
7532;BME280;3807;49.030;8.714;2024-01-30T06:56:03;100736.97;;;3.70;74.61
7532;BME280;3807;49.030;8.714;2024-01-30T06:58:29;100737.84;;;3.72;74.36
7532;BME280;3807;49.030;8.714;2024-01-30T07:00:54;100742.81;;;3.69;74.93
7532;BME280;3807;49.030;8.714;2024-01-30T07:03:20;100735.44;;;3.78;74.06
7532;BME280;3807;49.030;8.714;2024-01-30T07:05:45;100741.50;;;3.90;73.63
7532;BME280;3807;49.030;8.714;2024-01-30T07:08:11;100737.34;;;3.92;73.53
7532;BME280;3807;49.030;8.714;2024-01-30T07:10:36;100740.53;;;3.83;74.06
7532;BME280;3807;49.030;8.714;2024-01-30T07:13:01;100739.44;;;3.67;74.64
7532;BME280;3807;49.030;8.714;2024-01-30T07:15:27;100734.34;;;3.64;75.18
7532;BME280;3807;49.030;8.714;2024-01-30T07:17:52;100744.38;;;3.61;74.79
7532;BME280;3807;49.030;8.714;2024-01-30T07:20:18;100745.19;;;3.60;74.99
7532;BME280;3807;49.030;8.714;2024-01-30T07:22:45;100749.66;;;3.76;74.26
7532;BME280;3807;49.030;8.714;2024-01-30T07:25:11;100742.31;;;3.87;73.52
7532;BME280;3807;49.030;8.714;2024-01-30T07:27:36;100738.44;;;3.59;74.53
7532;BME280;3807;49.030;8.714;2024-01-30T07:30:02;100736.06;;;3.67;73.92
7532;BME280;3807;49.030;8.714;2024-01-30T07:32:27;100737.75;;;3.66;74.04
7532;BME280;3807;49.030;8.714;2024-01-30T07:34:52;100734.41;;;3.69;74.06
7532;BME280;3807;49.030;8.714;2024-01-30T07:37:18;100740.63;;;3.88;73.59
7532;BME280;3807;49.030;8.714;2024-01-30T07:39:43;100743.75;;;3.74;73.89
7532;BME280;3807;49.030;8.714;2024-01-30T07:42:10;100744.47;;;3.67;74.25
7532;BME280;3807;49.030;8.714;2024-01-30T07:44:35;100743.88;;;3.80;74.08
7532;BME280;3807;49.030;8.714;2024-01-30T07:47:01;100748.81;;;3.74;73.76
7532;BME280;3807;49.030;8.714;2024-01-30T07:49:26;100749.00;;;3.87;73.91
7532;BME280;3807;49.030;8.714;2024-01-30T07:51:52;100747.13;;;3.73;74.05
7532;BME280;3807;49.030;8.714;2024-01-30T07:54:17;100741.25;;;3.76;74.11
7532;BME280;3807;49.030;8.714;2024-01-30T07:56:42;100749.53;;;3.67;74.26
7532;BME280;3807;49.030;8.714;2024-01-30T07:59:11;100743.63;;;3.67;74.54
7532;BME280;3807;49.030;8.714;2024-01-30T08:01:37;100746.94;;;3.64;74.73
7532;BME280;3807;49.030;8.714;2024-01-30T08:04:03;100741.78;;;3.58;74.39
7532;BME280;3807;49.030;8.714;2024-01-30T08:06:28;100745.34;;;3.69;74.21
7532;BME280;3807;49.030;8.714;2024-01-30T08:08:53;100749.53;;;3.67;74.26
7532;BME280;3807;49.030;8.714;2024-01-30T08:11:22;100755.81;;;3.91;73.81
7532;BME280;3807;49.030;8.714;2024-01-30T08:13:51;100758.09;;;3.77;74.12
7532;BME280;3807;49.030;8.714;2024-01-30T08:16:17;100756.19;;;3.65;74.13
7532;BME280;3807;49.030;8.714;2024-01-30T08:18:42;100756.25;;;3.68;74.08
7532;BME280;3807;49.030;8.714;2024-01-30T08:21:08;100752.75;;;3.60;74.63
7532;BME280;3807;49.030;8.714;2024-01-30T08:23:34;100765.56;;;3.72;74.28
7532;BME280;3807;49.030;8.714;2024-01-30T08:25:59;100754.47;;;3.63;74.59
7532;BME280;3807;49.030;8.714;2024-01-30T08:28:25;100759.56;;;3.66;74.80
7532;BME280;3807;49.030;8.714;2024-01-30T08:30:51;100764.50;;;3.61;74.74
7532;BME280;3807;49.030;8.714;2024-01-30T08:33:16;100763.97;;;3.77;74.44
7532;BME280;3807;49.030;8.714;2024-01-30T08:35:42;100769.81;;;3.75;74.30
7532;BME280;3807;49.030;8.714;2024-01-30T08:38:07;100776.75;;;3.88;73.95
7532;BME280;3807;49.030;8.714;2024-01-30T08:40:33;100772.13;;;3.64;74.87
7532;BME280;3807;49.030;8.714;2024-01-30T08:42:58;100773.34;;;3.85;73.53
7532;BME280;3807;49.030;8.714;2024-01-30T08:45:23;100776.63;;;3.80;74.38
7532;BME280;3807;49.030;8.714;2024-01-30T08:47:49;100775.69;;;3.74;74.07
7532;BME280;3807;49.030;8.714;2024-01-30T08:50:14;100781.00;;;3.91;73.93
7532;BME280;3807;49.030;8.714;2024-01-30T08:52:40;100781.66;;;3.80;74.55
7532;BME280;3807;49.030;8.714;2024-01-30T08:55:05;100775.75;;;3.78;74.08
7532;BME280;3807;49.030;8.714;2024-01-30T08:57:30;100780.66;;;3.72;74.96
7532;BME280;3807;49.030;8.714;2024-01-30T08:59:56;100782.34;;;3.70;75.03
7532;BME280;3807;49.030;8.714;2024-01-30T09:02:21;100785.81;;;3.77;75.02
7532;BME280;3807;49.030;8.714;2024-01-30T09:04:47;100782.81;;;3.98;73.82
7532;BME280;3807;49.030;8.714;2024-01-30T09:07:12;100782.75;;;3.95;73.92
7532;BME280;3807;49.030;8.714;2024-01-30T09:09:39;100778.81;;;4.11;74.27
7532;BME280;3807;49.030;8.714;2024-01-30T09:12:07;100786.13;;;3.95;73.61
7532;BME280;3807;49.030;8.714;2024-01-30T09:14:35;100783.63;;;3.97;73.93
7532;BME280;3807;49.030;8.714;2024-01-30T09:17:00;100784.56;;;4.02;74.15
7532;BME280;3807;49.030;8.714;2024-01-30T09:19:26;100782.81;;;3.98;74.07
7532;BME280;3807;49.030;8.714;2024-01-30T09:21:51;100779.06;;;4.27;73.49
7532;BME280;3807;49.030;8.714;2024-01-30T09:24:17;100780.47;;;4.09;73.95
7532;BME280;3807;49.030;8.714;2024-01-30T09:26:42;100778.75;;;4.06;74.26
7532;BME280;3807;49.030;8.714;2024-01-30T09:29:08;100786.53;;;4.21;74.11
7532;BME280;3807;49.030;8.714;2024-01-30T09:31:33;100783.78;;;4.06;74.55
7532;BME280;3807;49.030;8.714;2024-01-30T09:33:58;100778.81;;;4.11;74.35
7532;BME280;3807;49.030;8.714;2024-01-30T09:36:24;100794.16;;;4.24;74.27
7532;BME280;3807;49.030;8.714;2024-01-30T09:38:49;100787.59;;;4.33;73.82
7532;BME280;3807;49.030;8.714;2024-01-30T09:41:15;100793.34;;;4.25;72.79
7532;BME280;3807;49.030;8.714;2024-01-30T09:43:41;100791.91;;;4.40;73.42
7532;BME280;3807;49.030;8.714;2024-01-30T09:46:13;100801.16;;;4.41;73.42
7532;BME280;3807;49.030;8.714;2024-01-30T09:48:41;100801.03;;;4.35;73.50
7532;BME280;3807;49.030;8.714;2024-01-30T09:51:09;100799.59;;;4.49;72.78
7532;BME280;3807;49.030;8.714;2024-01-30T09:53:35;100809.28;;;4.23;73.89
7532;BME280;3807;49.030;8.714;2024-01-30T09:56:02;100803.78;;;4.47;73.08
7532;BME280;3807;49.030;8.714;2024-01-30T09:58:28;100810.34;;;4.39;73.24
7532;BME280;3807;49.030;8.714;2024-01-30T10:00:53;100810.72;;;4.62;73.14
7532;BME280;3807;49.030;8.714;2024-01-30T10:03:19;100802.88;;;4.43;73.52
7532;BME280;3807;49.030;8.714;2024-01-30T10:05:51;100812.16;;;4.46;73.42
7532;BME280;3807;49.030;8.714;2024-01-30T10:08:19;100807.03;;;4.41;73.47
7532;BME280;3807;49.030;8.714;2024-01-30T10:10:49;100800.09;;;4.84;73.25
7532;BME280;3807;49.030;8.714;2024-01-30T10:13:15;100799.47;;;4.40;72.95
7532;BME280;3807;49.030;8.714;2024-01-30T10:15:41;100803.00;;;4.51;73.54
7532;BME280;3807;49.030;8.714;2024-01-30T10:18:07;100796.16;;;4.45;73.21
7532;BME280;3807;49.030;8.714;2024-01-30T10:20:34;100791.13;;;4.45;73.69
7532;BME280;3807;49.030;8.714;2024-01-30T10:22:59;100800.59;;;4.60;73.57
7532;BME280;3807;49.030;8.714;2024-01-30T10:25:25;100797.41;;;4.73;73.30
7532;BME280;3807;49.030;8.714;2024-01-30T10:27:54;100802.41;;;4.70;72.88
7532;BME280;3807;49.030;8.714;2024-01-30T10:30:21;100790.88;;;4.85;73.59
7532;BME280;3807;49.030;8.714;2024-01-30T10:32:46;100791.63;;;4.81;73.70
7532;BME280;3807;49.030;8.714;2024-01-30T10:35:12;100790.97;;;4.94;72.70
7532;BME280;3807;49.030;8.714;2024-01-30T10:37:38;100788.44;;;4.94;72.96
7532;BME280;3807;49.030;8.714;2024-01-30T10:40:03;100786.88;;;5.04;72.68
7532;BME280;3807;49.030;8.714;2024-01-30T10:42:31;100787.78;;;5.06;73.07
7532;BME280;3807;49.030;8.714;2024-01-30T10:45:06;100787.75;;;5.04;72.60
7532;BME280;3807;49.030;8.714;2024-01-30T10:47:40;100795.41;;;5.10;72.72
7532;BME280;3807;49.030;8.714;2024-01-30T10:50:05;100801.34;;;5.15;72.63
7532;BME280;3807;49.030;8.714;2024-01-30T10:52:32;100798.84;;;5.18;72.93
7532;BME280;3807;49.030;8.714;2024-01-30T10:54:58;100795.44;;;5.15;72.80
7532;BME280;3807;49.030;8.714;2024-01-30T10:57:25;100792.97;;;5.19;72.79
7532;BME280;3807;49.030;8.714;2024-01-30T10:59:53;100793.09;;;5.27;73.11
7532;BME280;3807;49.030;8.714;2024-01-30T11:02:20;100795.66;;;5.30;73.30
7532;BME280;3807;49.030;8.714;2024-01-30T11:04:47;100797.38;;;5.34;73.15
7532;BME280;3807;49.030;8.714;2024-01-30T11:07:24;100795.81;;;5.47;74.73
7532;BME280;3807;49.030;8.714;2024-01-30T11:09:51;100794.16;;;5.47;73.99
7532;BME280;3807;49.030;8.714;2024-01-30T11:12:16;100790.78;;;5.50;73.91
7532;BME280;3807;49.030;8.714;2024-01-30T11:14:46;100787.53;;;5.59;74.32
7532;BME280;3807;49.030;8.714;2024-01-30T11:17:11;100786.72;;;5.63;74.11
7532;BME280;3807;49.030;8.714;2024-01-30T11:19:37;100785.97;;;5.71;74.44
7532;BME280;3807;49.030;8.714;2024-01-30T11:22:03;100786.84;;;5.73;74.34
7532;BME280;3807;49.030;8.714;2024-01-30T11:24:29;100778.47;;;5.79;74.63
7532;BME280;3807;49.030;8.714;2024-01-30T11:26:56;100776.00;;;5.88;74.16
7532;BME280;3807;49.030;8.714;2024-01-30T11:29:29;100774.44;;;5.95;74.60
7532;BME280;3807;49.030;8.714;2024-01-30T11:31:56;100766.84;;;5.95;74.74
7532;BME280;3807;49.030;8.714;2024-01-30T11:34:22;100763.50;;;5.97;74.52
7532;BME280;3807;49.030;8.714;2024-01-30T11:36:52;100766.03;;;5.97;74.53
7532;BME280;3807;49.030;8.714;2024-01-30T11:39:24;100779.59;;;6.07;74.60
7532;BME280;3807;49.030;8.714;2024-01-30T11:41:51;100777.09;;;6.10;74.44
7532;BME280;3807;49.030;8.714;2024-01-30T11:44:17;100759.44;;;6.15;74.15
7532;BME280;3807;49.030;8.714;2024-01-30T11:46:43;100761.13;;;6.19;74.34
7532;BME280;3807;49.030;8.714;2024-01-30T11:49:08;100759.53;;;6.30;74.94
7532;BME280;3807;49.030;8.714;2024-01-30T11:51:33;100751.94;;;6.30;74.84
7532;BME280;3807;49.030;8.714;2024-01-30T11:53:59;100748.59;;;6.34;74.68
7532;BME280;3807;49.030;8.714;2024-01-30T11:56:24;100762.97;;;6.41;74.91
7532;BME280;3807;49.030;8.714;2024-01-30T11:58:52;100753.75;;;6.51;74.77
7532;BME280;3807;49.030;8.714;2024-01-30T12:01:17;100747.06;;;6.56;74.38
7532;BME280;3807;49.030;8.714;2024-01-30T12:03:43;100740.34;;;6.60;74.33
7532;BME280;3807;49.030;8.714;2024-01-30T12:06:15;100744.59;;;6.67;74.15
7532;BME280;3807;49.030;8.714;2024-01-30T12:08:40;100752.19;;;6.70;74.71
7532;BME280;3807;49.030;8.714;2024-01-30T12:11:06;100753.91;;;6.76;74.53
7532;BME280;3807;49.030;8.714;2024-01-30T12:13:32;100748.03;;;6.77;74.57
7532;BME280;3807;49.030;8.714;2024-01-30T12:15:57;100748.06;;;6.84;74.84
7532;BME280;3807;49.030;8.714;2024-01-30T12:18:22;100741.34;;;6.91;74.60
7532;BME280;3807;49.030;8.714;2024-01-30T12:21:00;100737.94;;;6.93;74.24
7532;BME280;3807;49.030;8.714;2024-01-30T12:23:27;100738.00;;;7.03;74.38
7532;BME280;3807;49.030;8.714;2024-01-30T12:25:53;100730.41;;;7.10;74.24
7532;BME280;3807;49.030;8.714;2024-01-30T12:28:19;100727.91;;;7.16;74.52
7532;BME280;3807;49.030;8.714;2024-01-30T12:30:45;100721.16;;;7.19;74.42
7532;BME280;3807;49.030;8.714;2024-01-30T12:33:16;100721.16;;;7.25;74.31
7532;BME280;3807;49.030;8.714;2024-01-30T12:35:45;100720.34;;;7.32;74.50
7532;BME280;3807;49.030;8.714;2024-01-30T12:38:11;100716.13;;;7.35;74.10
7532;BME280;3807;49.030;8.714;2024-01-30T12:40:36;100712.78;;;7.49;74.13
7532;BME280;3807;49.030;8.714;2024-01-30T12:43:02;100710.25;;;7.55;74.37
7532;BME280;3807;49.030;8.714;2024-01-30T12:45:28;100706.88;;;7.54;74.48
7532;BME280;3807;49.030;8.714;2024-01-30T12:47:53;100706.03;;;7.66;74.24
7532;BME280;3807;49.030;8.714;2024-01-30T12:50:19;100696.75;;;7.73;74.22
7532;BME280;3807;49.030;8.714;2024-01-30T12:52:44;100695.06;;;7.72;74.35
7532;BME280;3807;49.030;8.714;2024-01-30T12:55:10;100698.44;;;7.80;74.14
7532;BME280;3807;49.030;8.714;2024-01-30T12:57:35;100694.22;;;7.86;74.30
7532;BME280;3807;49.030;8.714;2024-01-30T13:00:01;100698.44;;;7.92;74.56
7532;BME280;3807;49.030;8.714;2024-01-30T13:02:26;100711.09;;;8.01;74.00
7532;BME280;3807;49.030;8.714;2024-01-30T13:04:59;100711.94;;;8.11;73.76
7532;BME280;3807;49.030;8.714;2024-01-30T13:07:25;100713.66;;;8.20;73.53
7532;BME280;3807;49.030;8.714;2024-01-30T13:09:50;100704.31;;;8.25;73.59
7532;BME280;3807;49.030;8.714;2024-01-30T13:12:16;100705.16;;;8.33;73.12
7532;BME280;3807;49.030;8.714;2024-01-30T13:14:42;100704.31;;;8.37;73.74